sensor_id;sensor_type;location;lat;lon;timestamp;temperature;humidity
33988;DHT22;37428;53.580;-1.666;2022-11-25T00:02:17;7.20;87.60
33988;DHT22;37428;53.580;-1.666;2022-11-25T00:05:20;7.10;87.20
33988;DHT22;37428;53.580;-1.666;2022-11-25T00:08:22;7.10;87.10
33988;DHT22;37428;53.580;-1.666;2022-11-25T00:11:25;7.00;87.40
33988;DHT22;37428;53.580;-1.666;2022-11-25T00:14:27;7.00;88.20
33988;DHT22;37428;53.580;-1.666;2022-11-25T00:17:29;7.00;88.00
33988;DHT22;37428;53.580;-1.666;2022-11-25T00:20:32;7.00;87.20
33988;DHT22;37428;53.580;-1.666;2022-11-25T00:23:35;7.00;87.20
33988;DHT22;37428;53.580;-1.666;2022-11-25T00:26:38;7.00;86.90
33988;DHT22;37428;53.580;-1.666;2022-11-25T00:29:40;7.00;87.40
33988;DHT22;37428;53.580;-1.666;2022-11-25T00:32:42;7.00;87.50
33988;DHT22;37428;53.580;-1.666;2022-11-25T00:35:45;7.10;87.70
33988;DHT22;37428;53.580;-1.666;2022-11-25T00:38:51;7.10;87.90
33988;DHT22;37428;53.580;-1.666;2022-11-25T00:41:54;7.10;88.10
33988;DHT22;37428;53.580;-1.666;2022-11-25T00:45:13;7.20;88.80
33988;DHT22;37428;53.580;-1.666;2022-11-25T00:48:16;7.10;90.10
33988;DHT22;37428;53.580;-1.666;2022-11-25T00:51:19;7.10;90.40
33988;DHT22;37428;53.580;-1.666;2022-11-25T00:54:21;7.10;90.50
33988;DHT22;37428;53.580;-1.666;2022-11-25T00:57:23;7.10;90.10
33988;DHT22;37428;53.580;-1.666;2022-11-25T01:00:25;7.10;90.40
33988;DHT22;37428;53.580;-1.666;2022-11-25T01:03:28;7.10;90.90
33988;DHT22;37428;53.580;-1.666;2022-11-25T01:06:32;7.10;91.10
33988;DHT22;37428;53.580;-1.666;2022-11-25T01:09:34;7.10;91.40
33988;DHT22;37428;53.580;-1.666;2022-11-25T01:12:37;7.10;91.80
33988;DHT22;37428;53.580;-1.666;2022-11-25T01:15:39;7.10;92.00
33988;DHT22;37428;53.580;-1.666;2022-11-25T01:18:42;7.10;91.80
33988;DHT22;37428;53.580;-1.666;2022-11-25T01:21:45;7.10;91.70
33988;DHT22;37428;53.580;-1.666;2022-11-25T01:24:48;7.10;92.00
33988;DHT22;37428;53.580;-1.666;2022-11-25T01:27:50;7.10;92.00
33988;DHT22;37428;53.580;-1.666;2022-11-25T01:30:58;7.20;92.30
33988;DHT22;37428;53.580;-1.666;2022-11-25T01:34:03;7.20;92.80
33988;DHT22;37428;53.580;-1.666;2022-11-25T01:37:07;7.10;93.10
33988;DHT22;37428;53.580;-1.666;2022-11-25T01:40:09;7.10;93.20
33988;DHT22;37428;53.580;-1.666;2022-11-25T01:43:12;7.20;93.00
33988;DHT22;37428;53.580;-1.666;2022-11-25T01:46:21;7.10;92.60
33988;DHT22;37428;53.580;-1.666;2022-11-25T01:49:30;7.10;92.40
33988;DHT22;37428;53.580;-1.666;2022-11-25T01:52:37;7.10;92.50
33988;DHT22;37428;53.580;-1.666;2022-11-25T01:55:42;7.10;92.50
33988;DHT22;37428;53.580;-1.666;2022-11-25T01:58:47;7.20;92.60
33988;DHT22;37428;53.580;-1.666;2022-11-25T02:01:50;7.20;93.20
33988;DHT22;37428;53.580;-1.666;2022-11-25T02:04:54;7.10;93.80
33988;DHT22;37428;53.580;-1.666;2022-11-25T02:07:59;7.10;94.20
33988;DHT22;37428;53.580;-1.666;2022-11-25T02:11:01;7.10;94.30
33988;DHT22;37428;53.580;-1.666;2022-11-25T02:14:05;7.10;94.40
33988;DHT22;37428;53.580;-1.666;2022-11-25T02:17:07;7.10;94.60
33988;DHT22;37428;53.580;-1.666;2022-11-25T02:20:11;7.10;93.80
33988;DHT22;37428;53.580;-1.666;2022-11-25T02:23:21;7.10;90.30
33988;DHT22;37428;53.580;-1.666;2022-11-25T02:26:27;7.10;90.20
33988;DHT22;37428;53.580;-1.666;2022-11-25T02:29:30;7.10;90.10
33988;DHT22;37428;53.580;-1.666;2022-11-25T02:32:33;7.00;90.90
33988;DHT22;37428;53.580;-1.666;2022-11-25T02:35:37;7.10;90.70
33988;DHT22;37428;53.580;-1.666;2022-11-25T02:38:42;7.00;90.40
33988;DHT22;37428;53.580;-1.666;2022-11-25T02:41:50;7.00;90.80
33988;DHT22;37428;53.580;-1.666;2022-11-25T02:44:52;6.90;91.30
33988;DHT22;37428;53.580;-1.666;2022-11-25T02:47:54;7.00;92.20
33988;DHT22;37428;53.580;-1.666;2022-11-25T02:50:57;7.00;92.70
33988;DHT22;37428;53.580;-1.666;2022-11-25T02:53:59;7.00;93.30
33988;DHT22;37428;53.580;-1.666;2022-11-25T02:57:03;7.10;93.40
33988;DHT22;37428;53.580;-1.666;2022-11-25T03:00:06;7.10;93.70
33988;DHT22;37428;53.580;-1.666;2022-11-25T03:03:09;7.10;94.50
33988;DHT22;37428;53.580;-1.666;2022-11-25T03:06:11;7.10;94.80
33988;DHT22;37428;53.580;-1.666;2022-11-25T03:09:13;7.10;96.10
33988;DHT22;37428;53.580;-1.666;2022-11-25T03:12:16;7.00;96.90
33988;DHT22;37428;53.580;-1.666;2022-11-25T03:15:21;7.00;97.20
33988;DHT22;37428;53.580;-1.666;2022-11-25T03:18:24;7.00;97.20
33988;DHT22;37428;53.580;-1.666;2022-11-25T03:21:26;7.00;97.10
33988;DHT22;37428;53.580;-1.666;2022-11-25T03:24:28;7.00;96.80
33988;DHT22;37428;53.580;-1.666;2022-11-25T03:27:32;7.00;96.60
33988;DHT22;37428;53.580;-1.666;2022-11-25T03:30:34;7.00;96.40
33988;DHT22;37428;53.580;-1.666;2022-11-25T03:33:36;7.00;96.40
33988;DHT22;37428;53.580;-1.666;2022-11-25T03:36:39;7.10;96.40
33988;DHT22;37428;53.580;-1.666;2022-11-25T03:39:41;7.10;96.20
33988;DHT22;37428;53.580;-1.666;2022-11-25T03:42:45;7.10;94.00
33988;DHT22;37428;53.580;-1.666;2022-11-25T03:45:47;7.20;93.30
33988;DHT22;37428;53.580;-1.666;2022-11-25T03:48:49;7.10;92.70
33988;DHT22;37428;53.580;-1.666;2022-11-25T03:51:51;7.10;92.80
33988;DHT22;37428;53.580;-1.666;2022-11-25T03:54:53;7.00;93.00
33988;DHT22;37428;53.580;-1.666;2022-11-25T03:57:57;7.10;93.20
33988;DHT22;37428;53.580;-1.666;2022-11-25T04:01:00;7.00;93.30
33988;DHT22;37428;53.580;-1.666;2022-11-25T04:04:02;7.10;93.10
33988;DHT22;37428;53.580;-1.666;2022-11-25T04:07:04;7.10;93.00
33988;DHT22;37428;53.580;-1.666;2022-11-25T04:10:08;7.10;93.30
33988;DHT22;37428;53.580;-1.666;2022-11-25T04:13:11;7.10;93.50
33988;DHT22;37428;53.580;-1.666;2022-11-25T04:16:20;7.10;93.50
33988;DHT22;37428;53.580;-1.666;2022-11-25T04:19:23;7.10;93.20
33988;DHT22;37428;53.580;-1.666;2022-11-25T04:22:25;7.10;92.70
33988;DHT22;37428;53.580;-1.666;2022-11-25T04:25:27;7.10;92.70
33988;DHT22;37428;53.580;-1.666;2022-11-25T04:28:31;7.00;92.60
33988;DHT22;37428;53.580;-1.666;2022-11-25T04:31:33;7.00;92.60
33988;DHT22;37428;53.580;-1.666;2022-11-25T04:34:37;7.00;93.40
33988;DHT22;37428;53.580;-1.666;2022-11-25T04:37:39;7.00;93.50
33988;DHT22;37428;53.580;-1.666;2022-11-25T04:40:41;7.00;93.50
33988;DHT22;37428;53.580;-1.666;2022-11-25T04:43:45;7.00;93.60
33988;DHT22;37428;53.580;-1.666;2022-11-25T04:46:47;7.00;93.40
33988;DHT22;37428;53.580;-1.666;2022-11-25T04:49:49;7.00;93.50
33988;DHT22;37428;53.580;-1.666;2022-11-25T04:52:51;7.00;93.30
33988;DHT22;37428;53.580;-1.666;2022-11-25T04:55:53;7.00;93.00
33988;DHT22;37428;53.580;-1.666;2022-11-25T04:58:57;7.00;93.10
33988;DHT22;37428;53.580;-1.666;2022-11-25T05:02:18;7.00;93.20
33988;DHT22;37428;53.580;-1.666;2022-11-25T05:05:21;6.90;93.30
33988;DHT22;37428;53.580;-1.666;2022-11-25T05:08:23;6.90;93.20
33988;DHT22;37428;53.580;-1.666;2022-11-25T05:11:25;6.90;93.30
33988;DHT22;37428;53.580;-1.666;2022-11-25T05:14:28;6.90;93.10
33988;DHT22;37428;53.580;-1.666;2022-11-25T05:17:31;6.90;92.80
33988;DHT22;37428;53.580;-1.666;2022-11-25T05:20:33;6.90;92.50
33988;DHT22;37428;53.580;-1.666;2022-11-25T05:23:35;7.00;92.30
33988;DHT22;37428;53.580;-1.666;2022-11-25T05:26:37;6.90;92.20
33988;DHT22;37428;53.580;-1.666;2022-11-25T05:29:41;6.90;91.70
33988;DHT22;37428;53.580;-1.666;2022-11-25T05:32:43;6.90;91.40
33988;DHT22;37428;53.580;-1.666;2022-11-25T05:35:53;6.90;90.50
33988;DHT22;37428;53.580;-1.666;2022-11-25T05:38:56;6.80;90.30
33988;DHT22;37428;53.580;-1.666;2022-11-25T05:41:58;6.80;90.40
33988;DHT22;37428;53.580;-1.666;2022-11-25T05:45:01;6.80;91.30
33988;DHT22;37428;53.580;-1.666;2022-11-25T05:48:04;6.80;92.00
33988;DHT22;37428;53.580;-1.666;2022-11-25T05:51:06;6.80;92.10
33988;DHT22;37428;53.580;-1.666;2022-11-25T05:54:08;6.80;91.80
33988;DHT22;37428;53.580;-1.666;2022-11-25T05:57:10;6.80;91.80
33988;DHT22;37428;53.580;-1.666;2022-11-25T06:00:15;6.70;91.20
33988;DHT22;37428;53.580;-1.666;2022-11-25T06:03:17;6.80;91.60
33988;DHT22;37428;53.580;-1.666;2022-11-25T06:06:19;6.70;91.90
33988;DHT22;37428;53.580;-1.666;2022-11-25T06:09:22;6.70;91.60
33988;DHT22;37428;53.580;-1.666;2022-11-25T06:12:24;6.70;91.20
33988;DHT22;37428;53.580;-1.666;2022-11-25T06:15:27;6.70;91.20
33988;DHT22;37428;53.580;-1.666;2022-11-25T06:18:29;6.70;91.00
33988;DHT22;37428;53.580;-1.666;2022-11-25T06:21:31;6.70;91.00
33988;DHT22;37428;53.580;-1.666;2022-11-25T06:24:34;6.70;91.00
33988;DHT22;37428;53.580;-1.666;2022-11-25T06:27:36;6.70;91.00
33988;DHT22;37428;53.580;-1.666;2022-11-25T06:30:40;6.70;91.20
33988;DHT22;37428;53.580;-1.666;2022-11-25T06:33:44;6.70;91.20
33988;DHT22;37428;53.580;-1.666;2022-11-25T06:36:48;6.60;91.00
33988;DHT22;37428;53.580;-1.666;2022-11-25T06:39:50;6.60;90.90
33988;DHT22;37428;53.580;-1.666;2022-11-25T06:42:53;6.60;91.00
33988;DHT22;37428;53.580;-1.666;2022-11-25T06:46:01;6.50;91.20
33988;DHT22;37428;53.580;-1.666;2022-11-25T06:49:03;6.50;90.90
33988;DHT22;37428;53.580;-1.666;2022-11-25T06:52:06;6.50;90.80
33988;DHT22;37428;53.580;-1.666;2022-11-25T06:55:09;6.50;90.70
33988;DHT22;37428;53.580;-1.666;2022-11-25T06:58:11;6.50;90.60
33988;DHT22;37428;53.580;-1.666;2022-11-25T07:01:16;6.50;90.70
33988;DHT22;37428;53.580;-1.666;2022-11-25T07:04:18;6.40;90.60
33988;DHT22;37428;53.580;-1.666;2022-11-25T07:07:20;6.50;90.80
33988;DHT22;37428;53.580;-1.666;2022-11-25T07:10:22;6.40;90.60
33988;DHT22;37428;53.580;-1.666;2022-11-25T07:13:24;6.40;90.20
33988;DHT22;37428;53.580;-1.666;2022-11-25T07:16:30;6.30;90.30
33988;DHT22;37428;53.580;-1.666;2022-11-25T07:19:32;6.30;90.40
33988;DHT22;37428;53.580;-1.666;2022-11-25T07:22:35;6.30;90.40
33988;DHT22;37428;53.580;-1.666;2022-11-25T07:25:37;6.30;90.60
33988;DHT22;37428;53.580;-1.666;2022-11-25T07:28:40;6.20;90.60
33988;DHT22;37428;53.580;-1.666;2022-11-25T07:31:44;6.20;90.30
33988;DHT22;37428;53.580;-1.666;2022-11-25T07:34:49;6.10;90.20
33988;DHT22;37428;53.580;-1.666;2022-11-25T07:37:52;6.10;90.00
33988;DHT22;37428;53.580;-1.666;2022-11-25T07:40:54;6.10;90.00
33988;DHT22;37428;53.580;-1.666;2022-11-25T07:43:57;6.10;89.80
33988;DHT22;37428;53.580;-1.666;2022-11-25T07:47:01;6.10;90.10
33988;DHT22;37428;53.580;-1.666;2022-11-25T07:50:03;6.10;90.10
33988;DHT22;37428;53.580;-1.666;2022-11-25T07:53:06;6.00;90.00
33988;DHT22;37428;53.580;-1.666;2022-11-25T07:56:08;6.10;89.80
33988;DHT22;37428;53.580;-1.666;2022-11-25T07:59:11;6.10;89.70
33988;DHT22;37428;53.580;-1.666;2022-11-25T08:02:15;6.10;89.50
33988;DHT22;37428;53.580;-1.666;2022-11-25T08:05:17;6.10;89.50
33988;DHT22;37428;53.580;-1.666;2022-11-25T08:08:19;6.10;89.30
33988;DHT22;37428;53.580;-1.666;2022-11-25T08:11:23;6.10;89.30
33988;DHT22;37428;53.580;-1.666;2022-11-25T08:14:25;6.10;89.50
33988;DHT22;37428;53.580;-1.666;2022-11-25T08:17:29;6.20;89.50
33988;DHT22;37428;53.580;-1.666;2022-11-25T08:20:31;6.20;89.60
33988;DHT22;37428;53.580;-1.666;2022-11-25T08:23:33;6.20;89.20
33988;DHT22;37428;53.580;-1.666;2022-11-25T08:26:36;6.20;89.20
33988;DHT22;37428;53.580;-1.666;2022-11-25T08:29:38;6.20;89.30
33988;DHT22;37428;53.580;-1.666;2022-11-25T08:32:41;6.30;89.10
33988;DHT22;37428;53.580;-1.666;2022-11-25T08:35:43;6.30;89.10
33988;DHT22;37428;53.580;-1.666;2022-11-25T08:38:47;6.30;88.90
33988;DHT22;37428;53.580;-1.666;2022-11-25T08:41:49;6.30;88.80
33988;DHT22;37428;53.580;-1.666;2022-11-25T08:44:52;6.30;88.80
33988;DHT22;37428;53.580;-1.666;2022-11-25T08:47:57;6.40;88.30
33988;DHT22;37428;53.580;-1.666;2022-11-25T08:50:59;6.50;88.40
33988;DHT22;37428;53.580;-1.666;2022-11-25T08:54:01;6.50;88.10
33988;DHT22;37428;53.580;-1.666;2022-11-25T08:57:04;6.60;88.20
33988;DHT22;37428;53.580;-1.666;2022-11-25T09:00:07;6.60;88.10
33988;DHT22;37428;53.580;-1.666;2022-11-25T09:03:11;6.60;88.20
33988;DHT22;37428;53.580;-1.666;2022-11-25T09:06:14;6.60;88.10
33988;DHT22;37428;53.580;-1.666;2022-11-25T09:09:16;6.70;87.90
33988;DHT22;37428;53.580;-1.666;2022-11-25T09:12:19;6.70;87.60
33988;DHT22;37428;53.580;-1.666;2022-11-25T09:15:21;6.70;87.50
33988;DHT22;37428;53.580;-1.666;2022-11-25T09:18:24;6.70;87.50
33988;DHT22;37428;53.580;-1.666;2022-11-25T09:21:29;6.70;87.40
33988;DHT22;37428;53.580;-1.666;2022-11-25T09:24:33;6.80;87.20
33988;DHT22;37428;53.580;-1.666;2022-11-25T09:27:35;6.80;87.20
33988;DHT22;37428;53.580;-1.666;2022-11-25T09:30:37;6.80;86.90
33988;DHT22;37428;53.580;-1.666;2022-11-25T09:33:40;6.90;86.60
33988;DHT22;37428;53.580;-1.666;2022-11-25T09:36:45;7.10;86.50
33988;DHT22;37428;53.580;-1.666;2022-11-25T09:39:47;7.20;86.20
33988;DHT22;37428;53.580;-1.666;2022-11-25T09:42:58;7.30;85.10
33988;DHT22;37428;53.580;-1.666;2022-11-25T09:46:37;7.40;84.50
33988;DHT22;37428;53.580;-1.666;2022-11-25T09:50:01;7.50;84.30
33988;DHT22;37428;53.580;-1.666;2022-11-25T09:53:13;7.60;83.60
33988;DHT22;37428;53.580;-1.666;2022-11-25T09:56:28;7.70;84.00
33988;DHT22;37428;53.580;-1.666;2022-11-25T09:59:36;7.80;83.40
33988;DHT22;37428;53.580;-1.666;2022-11-25T10:02:43;7.90;82.60
33988;DHT22;37428;53.580;-1.666;2022-11-25T10:05:56;8.00;82.40
33988;DHT22;37428;53.580;-1.666;2022-11-25T10:09:00;8.10;82.40
33988;DHT22;37428;53.580;-1.666;2022-11-25T10:12:09;8.10;81.50
33988;DHT22;37428;53.580;-1.666;2022-11-25T10:15:17;8.20;81.80
33988;DHT22;37428;53.580;-1.666;2022-11-25T10:18:26;8.30;81.70
33988;DHT22;37428;53.580;-1.666;2022-11-25T10:21:32;8.40;81.10
33988;DHT22;37428;53.580;-1.666;2022-11-25T10:24:34;8.50;81.10
33988;DHT22;37428;53.580;-1.666;2022-11-25T10:27:41;8.50;80.50
33988;DHT22;37428;53.580;-1.666;2022-11-25T10:30:48;8.50;80.00
33988;DHT22;37428;53.580;-1.666;2022-11-25T10:33:53;8.50;79.90
33988;DHT22;37428;53.580;-1.666;2022-11-25T10:36:59;8.50;80.50
33988;DHT22;37428;53.580;-1.666;2022-11-25T10:40:04;8.60;80.00
33988;DHT22;37428;53.580;-1.666;2022-11-25T10:43:11;8.60;79.90
33988;DHT22;37428;53.580;-1.666;2022-11-25T10:46:21;8.70;79.80
33988;DHT22;37428;53.580;-1.666;2022-11-25T10:49:29;8.70;79.90
33988;DHT22;37428;53.580;-1.666;2022-11-25T10:52:43;8.80;79.30
33988;DHT22;37428;53.580;-1.666;2022-11-25T10:55:57;8.70;79.20
33988;DHT22;37428;53.580;-1.666;2022-11-25T10:59:12;8.70;79.30
33988;DHT22;37428;53.580;-1.666;2022-11-25T11:02:17;8.70;79.10
33988;DHT22;37428;53.580;-1.666;2022-11-25T11:05:23;8.60;80.00
33988;DHT22;37428;53.580;-1.666;2022-11-25T11:08:28;8.60;79.90
33988;DHT22;37428;53.580;-1.666;2022-11-25T11:11:46;8.70;79.20
33988;DHT22;37428;53.580;-1.666;2022-11-25T11:14:49;8.60;79.70
33988;DHT22;37428;53.580;-1.666;2022-11-25T11:17:52;8.60;79.20
33988;DHT22;37428;53.580;-1.666;2022-11-25T11:20:55;8.60;79.60
33988;DHT22;37428;53.580;-1.666;2022-11-25T11:24:00;8.60;79.20
33988;DHT22;37428;53.580;-1.666;2022-11-25T11:27:05;8.70;79.50
33988;DHT22;37428;53.580;-1.666;2022-11-25T11:30:12;8.80;78.80
33988;DHT22;37428;53.580;-1.666;2022-11-25T11:33:29;8.90;78.70
33988;DHT22;37428;53.580;-1.666;2022-11-25T11:36:38;8.90;79.40
33988;DHT22;37428;53.580;-1.666;2022-11-25T11:39:58;9.00;78.50
33988;DHT22;37428;53.580;-1.666;2022-11-25T11:43:21;9.00;78.30
33988;DHT22;37428;53.580;-1.666;2022-11-25T11:46:44;9.10;78.00
33988;DHT22;37428;53.580;-1.666;2022-11-25T11:50:01;9.20;75.60
33988;DHT22;37428;53.580;-1.666;2022-11-25T11:53:09;9.30;74.80
33988;DHT22;37428;53.580;-1.666;2022-11-25T11:56:17;9.40;75.50
33988;DHT22;37428;53.580;-1.666;2022-11-25T11:59:45;9.50;75.70
33988;DHT22;37428;53.580;-1.666;2022-11-25T12:02:56;9.60;75.90
33988;DHT22;37428;53.580;-1.666;2022-11-25T12:06:03;9.80;74.50
33988;DHT22;37428;53.580;-1.666;2022-11-25T12:09:10;9.80;74.90
33988;DHT22;37428;53.580;-1.666;2022-11-25T12:12:17;9.90;74.30
33988;DHT22;37428;53.580;-1.666;2022-11-25T12:15:27;10.00;73.80
33988;DHT22;37428;53.580;-1.666;2022-11-25T12:18:39;10.00;73.30
33988;DHT22;37428;53.580;-1.666;2022-11-25T12:21:50;10.00;72.70
33988;DHT22;37428;53.580;-1.666;2022-11-25T12:25:00;10.10;73.30
33988;DHT22;37428;53.580;-1.666;2022-11-25T12:28:08;10.20;72.00
33988;DHT22;37428;53.580;-1.666;2022-11-25T12:31:16;10.20;72.10
33988;DHT22;37428;53.580;-1.666;2022-11-25T12:34:26;10.20;72.50
33988;DHT22;37428;53.580;-1.666;2022-11-25T12:37:37;10.30;72.20
33988;DHT22;37428;53.580;-1.666;2022-11-25T12:40:44;10.40;72.20
33988;DHT22;37428;53.580;-1.666;2022-11-25T12:43:52;10.60;72.10
33988;DHT22;37428;53.580;-1.666;2022-11-25T12:46:57;10.60;71.20
33988;DHT22;37428;53.580;-1.666;2022-11-25T12:49:59;10.60;71.80
33988;DHT22;37428;53.580;-1.666;2022-11-25T12:53:05;10.70;71.70
33988;DHT22;37428;53.580;-1.666;2022-11-25T12:56:16;10.80;71.10
33988;DHT22;37428;53.580;-1.666;2022-11-25T12:59:38;10.80;71.00
33988;DHT22;37428;53.580;-1.666;2022-11-25T13:03:07;10.80;71.40
33988;DHT22;37428;53.580;-1.666;2022-11-25T13:10:13;11.00;71.30
33988;DHT22;37428;53.580;-1.666;2022-11-25T13:13:32;11.10;71.40
33988;DHT22;37428;53.580;-1.666;2022-11-25T13:16:40;11.10;70.90
33988;DHT22;37428;53.580;-1.666;2022-11-25T13:19:43;11.00;71.30
33988;DHT22;37428;53.580;-1.666;2022-11-25T13:23:00;10.90;72.00
33988;DHT22;37428;53.580;-1.666;2022-11-25T13:26:45;10.80;72.20
33988;DHT22;37428;53.580;-1.666;2022-11-25T13:29:56;10.60;72.60
33988;DHT22;37428;53.580;-1.666;2022-11-25T13:36:46;10.30;74.00
33988;DHT22;37428;53.580;-1.666;2022-11-25T13:39:48;10.10;74.70
33988;DHT22;37428;53.580;-1.666;2022-11-25T13:42:51;10.10;74.40
33988;DHT22;37428;53.580;-1.666;2022-11-25T13:45:55;10.10;74.90
33988;DHT22;37428;53.580;-1.666;2022-11-25T13:49:00;10.00;75.00
33988;DHT22;37428;53.580;-1.666;2022-11-25T13:52:07;9.90;75.30
33988;DHT22;37428;53.580;-1.666;2022-11-25T13:55:31;9.90;75.20
33988;DHT22;37428;53.580;-1.666;2022-11-25T13:58:33;9.90;75.60
33988;DHT22;37428;53.580;-1.666;2022-11-25T14:01:36;9.80;75.90
33988;DHT22;37428;53.580;-1.666;2022-11-25T14:04:47;9.80;75.30
33988;DHT22;37428;53.580;-1.666;2022-11-25T14:08:02;9.90;75.00
33988;DHT22;37428;53.580;-1.666;2022-11-25T14:11:34;10.00;75.50
33988;DHT22;37428;53.580;-1.666;2022-11-25T14:15:02;10.00;74.40
33988;DHT22;37428;53.580;-1.666;2022-11-25T14:22:01;9.90;75.00
33988;DHT22;37428;53.580;-1.666;2022-11-25T14:25:13;9.80;75.30
33988;DHT22;37428;53.580;-1.666;2022-11-25T14:28:25;9.70;75.50
33988;DHT22;37428;53.580;-1.666;2022-11-25T14:31:33;9.60;76.10
33988;DHT22;37428;53.580;-1.666;2022-11-25T14:34:39;9.60;76.50
33988;DHT22;37428;53.580;-1.666;2022-11-25T14:37:47;9.60;76.80
33988;DHT22;37428;53.580;-1.666;2022-11-25T14:40:54;9.70;76.70
33988;DHT22;37428;53.580;-1.666;2022-11-25T14:44:03;9.70;76.90
33988;DHT22;37428;53.580;-1.666;2022-11-25T14:47:06;9.70;76.80
33988;DHT22;37428;53.580;-1.666;2022-11-25T14:50:12;9.70;76.50
33988;DHT22;37428;53.580;-1.666;2022-11-25T14:53:17;9.70;76.80
33988;DHT22;37428;53.580;-1.666;2022-11-25T14:56:24;9.70;76.90
33988;DHT22;37428;53.580;-1.666;2022-11-25T14:59:27;9.70;77.00
33988;DHT22;37428;53.580;-1.666;2022-11-25T15:02:31;9.70;76.60
33988;DHT22;37428;53.580;-1.666;2022-11-25T15:05:36;9.80;76.90
33988;DHT22;37428;53.580;-1.666;2022-11-25T15:08:42;9.70;77.20
33988;DHT22;37428;53.580;-1.666;2022-11-25T15:11:45;9.70;77.10
33988;DHT22;37428;53.580;-1.666;2022-11-25T15:14:50;9.70;77.30
33988;DHT22;37428;53.580;-1.666;2022-11-25T15:17:53;9.70;77.10
33988;DHT22;37428;53.580;-1.666;2022-11-25T15:20:56;9.70;76.70
33988;DHT22;37428;53.580;-1.666;2022-11-25T15:24:00;9.70;77.40
33988;DHT22;37428;53.580;-1.666;2022-11-25T15:27:09;9.60;77.70
33988;DHT22;37428;53.580;-1.666;2022-11-25T15:30:19;9.60;77.60
33988;DHT22;37428;53.580;-1.666;2022-11-25T15:33:23;9.60;77.60
33988;DHT22;37428;53.580;-1.666;2022-11-25T15:36:26;9.60;78.10
33988;DHT22;37428;53.580;-1.666;2022-11-25T15:39:29;9.60;78.10
33988;DHT22;37428;53.580;-1.666;2022-11-25T15:42:33;9.60;78.30
33988;DHT22;37428;53.580;-1.666;2022-11-25T15:45:42;9.60;78.70
33988;DHT22;37428;53.580;-1.666;2022-11-25T15:48:46;9.50;78.80
33988;DHT22;37428;53.580;-1.666;2022-11-25T15:51:52;9.50;78.90
33988;DHT22;37428;53.580;-1.666;2022-11-25T15:55:00;9.50;79.10
33988;DHT22;37428;53.580;-1.666;2022-11-25T15:58:06;9.40;79.40
33988;DHT22;37428;53.580;-1.666;2022-11-25T16:01:20;9.40;79.60
33988;DHT22;37428;53.580;-1.666;2022-11-25T16:04:23;9.30;79.60
33988;DHT22;37428;53.580;-1.666;2022-11-25T16:07:26;9.30;79.80
33988;DHT22;37428;53.580;-1.666;2022-11-25T16:10:31;9.20;80.30
33988;DHT22;37428;53.580;-1.666;2022-11-25T16:13:35;9.20;80.60
33988;DHT22;37428;53.580;-1.666;2022-11-25T16:16:37;9.20;80.70
33988;DHT22;37428;53.580;-1.666;2022-11-25T16:19:41;9.10;80.50
33988;DHT22;37428;53.580;-1.666;2022-11-25T16:22:44;9.10;80.60
33988;DHT22;37428;53.580;-1.666;2022-11-25T16:26:01;9.00;80.70
33988;DHT22;37428;53.580;-1.666;2022-11-25T16:29:14;9.00;80.80
33988;DHT22;37428;53.580;-1.666;2022-11-25T16:32:19;9.00;80.60
33988;DHT22;37428;53.580;-1.666;2022-11-25T16:35:21;8.90;80.60
33988;DHT22;37428;53.580;-1.666;2022-11-25T16:38:24;8.90;80.60
33988;DHT22;37428;53.580;-1.666;2022-11-25T16:41:27;8.90;80.70
33988;DHT22;37428;53.580;-1.666;2022-11-25T16:44:31;8.80;80.80
33988;DHT22;37428;53.580;-1.666;2022-11-25T16:47:33;8.80;80.80
33988;DHT22;37428;53.580;-1.666;2022-11-25T16:50:36;8.80;80.80
33988;DHT22;37428;53.580;-1.666;2022-11-25T16:53:38;8.80;80.90
33988;DHT22;37428;53.580;-1.666;2022-11-25T16:56:42;8.80;81.00
33988;DHT22;37428;53.580;-1.666;2022-11-25T16:59:46;8.80;81.00
33988;DHT22;37428;53.580;-1.666;2022-11-25T17:02:49;8.80;80.80
33988;DHT22;37428;53.580;-1.666;2022-11-25T17:05:52;8.80;80.90
33988;DHT22;37428;53.580;-1.666;2022-11-25T17:08:54;8.80;80.90
33988;DHT22;37428;53.580;-1.666;2022-11-25T17:11:58;8.80;80.90
33988;DHT22;37428;53.580;-1.666;2022-11-25T17:15:02;8.80;80.90
33988;DHT22;37428;53.580;-1.666;2022-11-25T17:18:06;8.80;80.70
33988;DHT22;37428;53.580;-1.666;2022-11-25T17:21:10;8.80;80.00
33988;DHT22;37428;53.580;-1.666;2022-11-25T17:24:17;8.80;80.10
33988;DHT22;37428;53.580;-1.666;2022-11-25T17:27:24;8.70;79.60
33988;DHT22;37428;53.580;-1.666;2022-11-25T17:30:28;8.70;79.80
33988;DHT22;37428;53.580;-1.666;2022-11-25T17:33:32;8.60;80.10
33988;DHT22;37428;53.580;-1.666;2022-11-25T17:36:34;8.60;80.10
33988;DHT22;37428;53.580;-1.666;2022-11-25T17:39:36;8.50;80.40
33988;DHT22;37428;53.580;-1.666;2022-11-25T17:42:40;8.50;80.60
33988;DHT22;37428;53.580;-1.666;2022-11-25T17:45:43;8.50;80.70
33988;DHT22;37428;53.580;-1.666;2022-11-25T17:48:46;8.60;81.20
33988;DHT22;37428;53.580;-1.666;2022-11-25T17:51:48;8.50;81.00
33988;DHT22;37428;53.580;-1.666;2022-11-25T17:54:51;8.50;81.10
33988;DHT22;37428;53.580;-1.666;2022-11-25T17:57:54;8.50;81.50
33988;DHT22;37428;53.580;-1.666;2022-11-25T18:00:56;8.60;81.70
33988;DHT22;37428;53.580;-1.666;2022-11-25T18:03:59;8.60;81.70
33988;DHT22;37428;53.580;-1.666;2022-11-25T18:07:01;8.50;81.90
33988;DHT22;37428;53.580;-1.666;2022-11-25T18:10:04;8.50;82.10
33988;DHT22;37428;53.580;-1.666;2022-11-25T18:13:09;8.50;82.20
33988;DHT22;37428;53.580;-1.666;2022-11-25T18:16:12;8.50;82.30
33988;DHT22;37428;53.580;-1.666;2022-11-25T18:19:15;8.50;82.10
33988;DHT22;37428;53.580;-1.666;2022-11-25T18:22:18;8.60;82.20
33988;DHT22;37428;53.580;-1.666;2022-11-25T18:25:23;8.60;82.40
33988;DHT22;37428;53.580;-1.666;2022-11-25T18:28:29;8.60;82.50
33988;DHT22;37428;53.580;-1.666;2022-11-25T18:31:32;8.60;82.60
33988;DHT22;37428;53.580;-1.666;2022-11-25T18:34:34;8.50;82.60
33988;DHT22;37428;53.580;-1.666;2022-11-25T18:37:36;8.50;82.60
33988;DHT22;37428;53.580;-1.666;2022-11-25T18:40:40;8.50;82.90
33988;DHT22;37428;53.580;-1.666;2022-11-25T18:43:44;8.50;83.30
33988;DHT22;37428;53.580;-1.666;2022-11-25T18:46:47;8.50;83.70
33988;DHT22;37428;53.580;-1.666;2022-11-25T18:49:49;8.50;84.10
33988;DHT22;37428;53.580;-1.666;2022-11-25T18:52:52;8.50;84.10
33988;DHT22;37428;53.580;-1.666;2022-11-25T18:55:54;8.50;84.20
33988;DHT22;37428;53.580;-1.666;2022-11-25T18:58:58;8.50;84.10
33988;DHT22;37428;53.580;-1.666;2022-11-25T19:02:00;8.40;84.30
33988;DHT22;37428;53.580;-1.666;2022-11-25T19:05:14;8.40;84.20
33988;DHT22;37428;53.580;-1.666;2022-11-25T19:08:16;8.50;84.40
33988;DHT22;37428;53.580;-1.666;2022-11-25T19:11:25;8.40;84.70
33988;DHT22;37428;53.580;-1.666;2022-11-25T19:14:32;8.40;84.80
33988;DHT22;37428;53.580;-1.666;2022-11-25T19:17:35;8.40;84.90
33988;DHT22;37428;53.580;-1.666;2022-11-25T19:20:37;8.40;84.90
33988;DHT22;37428;53.580;-1.666;2022-11-25T19:23:39;8.40;84.90
33988;DHT22;37428;53.580;-1.666;2022-11-25T19:26:44;8.40;84.80
33988;DHT22;37428;53.580;-1.666;2022-11-25T19:30:07;8.40;84.70
33988;DHT22;37428;53.580;-1.666;2022-11-25T19:33:15;8.40;84.70
33988;DHT22;37428;53.580;-1.666;2022-11-25T19:36:23;8.40;84.60
33988;DHT22;37428;53.580;-1.666;2022-11-25T19:39:26;8.40;84.80
33988;DHT22;37428;53.580;-1.666;2022-11-25T19:42:29;8.40;84.90